createdAt,value
2017-07-08T00:00:37.489Z,1006.5
2017-07-08T00:01:39.559Z,1006.4
2017-07-08T00:02:41.623Z,1006.5
2017-07-08T00:03:43.701Z,1006.5
2017-07-08T00:04:45.762Z,1006.4
2017-07-08T00:05:47.832Z,1006.5
2017-07-08T00:06:49.887Z,1006.5
2017-07-08T00:07:51.953Z,1006.5
2017-07-08T00:08:54.223Z,1006.4
2017-07-08T00:09:56.289Z,1006.5
2017-07-08T00:10:58.356Z,1006.5
2017-07-08T00:12:00.420Z,1006.5
2017-07-08T00:13:02.481Z,1006.5
2017-07-08T00:14:04.553Z,1006.4
2017-07-08T00:15:06.624Z,1006.4
2017-07-08T00:16:09.036Z,1006.4
2017-07-08T00:17:11.101Z,1006.4
2017-07-08T00:18:13.174Z,1006.4
2017-07-08T00:19:15.234Z,1006.4
2017-07-08T00:20:17.304Z,1006.4
2017-07-08T00:21:19.362Z,1006.4
2017-07-08T00:22:21.426Z,1006.4
2017-07-08T00:23:23.497Z,1006.5
2017-07-08T00:24:25.562Z,1006.5
2017-07-08T00:25:27.617Z,1006.5
2017-07-08T00:26:29.688Z,1006.5
2017-07-08T00:27:31.752Z,1006.5
2017-07-08T00:28:33.815Z,1006.5
2017-07-08T00:29:35.872Z,1006.4
2017-07-08T00:30:37.947Z,1006.3
2017-07-08T00:31:40.010Z,1006.3
2017-07-08T00:32:42.074Z,1006.3
2017-07-08T00:33:44.145Z,1006.3
2017-07-08T00:34:46.214Z,1006.3
2017-07-08T00:35:48.292Z,1006.2
2017-07-08T00:36:50.355Z,1006.2
2017-07-08T00:37:52.418Z,1006.2
2017-07-08T00:38:54.494Z,1006.2
2017-07-08T00:39:56.553Z,1006.2
2017-07-08T00:40:58.621Z,1006.2
2017-07-08T00:42:01.062Z,1006.2
2017-07-08T00:43:03.126Z,1006.1
2017-07-08T00:44:05.181Z,1006.1
2017-07-08T00:45:07.251Z,1006.1
2017-07-08T00:46:09.319Z,1006.1
2017-07-08T00:47:11.380Z,1006.1
2017-07-08T00:48:13.440Z,1006.1
2017-07-08T00:49:15.517Z,1006.1
2017-07-08T00:50:17.583Z,1006.1
2017-07-08T00:51:19.642Z,1006.1
2017-07-08T00:52:21.706Z,1006.1
2017-07-08T00:53:23.774Z,1006
2017-07-08T00:54:25.844Z,1006.1
2017-07-08T00:55:27.910Z,1006.1
2017-07-08T00:56:29.968Z,1006.1
2017-07-08T00:57:32.036Z,1006.2
2017-07-08T00:58:34.107Z,1006.2
2017-07-08T00:59:36.175Z,1006.2
2017-07-08T01:00:38.243Z,1006.2
2017-07-08T01:01:40.300Z,1006.2
2017-07-08T01:02:42.368Z,1006.2
2017-07-08T01:03:44.432Z,1006.2
2017-07-08T01:04:46.502Z,1006.2
2017-07-08T01:05:48.917Z,1006.2
2017-07-08T01:06:51.320Z,1006.2
2017-07-08T01:07:53.385Z,1006.1
2017-07-08T01:08:55.442Z,1006.2
2017-07-08T01:09:57.507Z,1006.2
2017-07-08T01:10:59.585Z,1006.1
2017-07-08T01:12:01.646Z,1006.2
2017-07-08T01:13:03.717Z,1006.1
2017-07-08T01:14:05.790Z,1006.1
2017-07-08T01:15:07.848Z,1006.1
2017-07-08T01:16:09.917Z,1006.1
2017-07-08T01:17:11.987Z,1006.1
2017-07-08T01:18:14.051Z,1006
2017-07-08T01:19:16.118Z,1006.1
2017-07-08T01:20:18.176Z,1006
2017-07-08T01:21:20.243Z,1006.1
2017-07-08T01:22:22.312Z,1006.1
2017-07-08T01:23:24.373Z,1006.1
2017-07-08T01:24:26.443Z,1006.2
2017-07-08T01:25:28.853Z,1006.2
2017-07-08T01:26:30.917Z,1006.2
2017-07-08T01:27:32.988Z,1006.2
2017-07-08T01:28:35.044Z,1006.3
2017-07-08T01:29:37.114Z,1006.3
2017-07-08T01:30:39.183Z,1006.3
2017-07-08T01:31:41.242Z,1006.3
2017-07-08T01:32:43.319Z,1006.3
2017-07-08T01:33:45.383Z,1006.3
2017-07-08T01:34:47.449Z,1006.3
2017-07-08T01:35:49.518Z,1006.3
2017-07-08T01:36:51.574Z,1006.3
2017-07-08T01:37:53.637Z,1006.4
2017-07-08T01:38:55.718Z,1006.4
2017-07-08T01:39:57.778Z,1006.4
2017-07-08T01:40:59.853Z,1006.4
2017-07-08T01:42:01.913Z,1006.4
2017-07-08T01:43:04.325Z,1006.4
2017-07-08T01:44:06.388Z,1006.4
2017-07-08T01:45:08.441Z,1006.4
2017-07-08T01:46:10.513Z,1006.5
2017-07-08T01:47:12.579Z,1006.4
2017-07-08T01:48:14.635Z,1006.4
2017-07-08T01:49:16.706Z,1006.4
2017-07-08T01:50:18.767Z,1006.4
2017-07-08T01:51:20.826Z,1006.4
2017-07-08T01:52:22.892Z,1006.3
2017-07-08T01:53:24.961Z,1006.3
2017-07-08T01:54:27.027Z,1006.3
2017-07-08T01:55:29.091Z,1006.3
2017-07-08T01:56:31.158Z,1006.2
2017-07-08T01:57:33.565Z,1006.2
2017-07-08T01:58:35.635Z,1006.3
2017-07-08T01:59:37.701Z,1006.3
2017-07-08T02:00:39.772Z,1006.3
2017-07-08T02:01:41.830Z,1006.3
2017-07-08T02:02:43.893Z,1006.3
2017-07-08T02:03:45.957Z,1006.4
2017-07-08T02:04:48.035Z,1006.4
2017-07-08T02:05:50.100Z,1006.4
2017-07-08T02:06:52.166Z,1006.5
2017-07-08T02:07:54.233Z,1006.5
2017-07-08T02:08:56.304Z,1006.5
2017-07-08T02:09:58.374Z,1006.5
2017-07-08T02:11:00.439Z,1006.5
2017-07-08T02:12:02.502Z,1006.6
2017-07-08T02:13:04.565Z,1006.5
2017-07-08T02:14:06.638Z,1006.5
2017-07-08T02:15:08.702Z,1006.5
2017-07-08T02:16:10.765Z,1006.6
2017-07-08T02:17:12.832Z,1006.5
2017-07-08T02:18:14.908Z,1006.6
2017-07-08T02:19:16.968Z,1006.5
2017-07-08T02:20:19.025Z,1006.6
2017-07-08T02:21:21.094Z,1006.6
2017-07-08T02:22:23.153Z,1006.5
2017-07-08T02:23:25.211Z,1006.5
2017-07-08T02:24:27.282Z,1006.5
2017-07-08T02:25:29.681Z,1006.4
2017-07-08T02:26:31.754Z,1006.5
2017-07-08T02:27:33.817Z,1006.4
2017-07-08T02:28:35.885Z,1006.4
2017-07-08T02:29:37.952Z,1006.4
2017-07-08T02:30:40.021Z,1006.3
2017-07-08T02:31:42.083Z,1006.3
2017-07-08T02:32:44.145Z,1006.3
2017-07-08T02:33:46.222Z,1006.3
2017-07-08T02:34:48.287Z,1006.3
2017-07-08T02:35:50.345Z,1006.3
2017-07-08T02:36:52.409Z,1006.3
2017-07-08T02:37:54.481Z,1006.2
2017-07-08T02:38:56.548Z,1006.3
2017-07-08T02:39:58.613Z,1006.3
2017-07-08T02:41:00.685Z,1006.3
2017-07-08T02:42:02.753Z,1006.3
2017-07-08T02:43:04.809Z,1006.3
2017-07-08T02:44:06.872Z,1006.4
2017-07-08T02:45:08.943Z,1006.4
2017-07-08T02:46:11.010Z,1006.4
2017-07-08T02:47:13.072Z,1006.3
2017-07-08T02:48:15.141Z,1006.4
2017-07-08T02:49:17.208Z,1006.4
2017-07-08T02:50:19.280Z,1006.3
2017-07-08T02:51:21.354Z,1006.4
2017-07-08T02:52:23.409Z,1006.3
2017-07-08T02:53:25.479Z,1006.4
2017-07-08T02:54:27.541Z,1006.4
2017-07-08T02:55:29.610Z,1006.5
2017-07-08T02:56:31.682Z,1006.5
2017-07-08T02:57:33.744Z,1006.5
2017-07-08T02:58:35.816Z,1006.6
2017-07-08T02:59:37.870Z,1006.5
2017-07-08T03:00:39.937Z,1006.5
2017-07-08T03:01:42.017Z,1006.5
2017-07-08T03:02:44.082Z,1006.5
2017-07-08T03:03:46.147Z,1006.5
2017-07-08T03:04:48.219Z,1006.5
2017-07-08T03:05:50.288Z,1006.5
2017-07-08T03:06:52.342Z,1006.5
2017-07-08T03:07:54.402Z,1006.5
2017-07-08T03:08:56.482Z,1006.5
2017-07-08T03:09:58.544Z,1006.5
2017-07-08T03:11:00.615Z,1006.5
2017-07-08T03:12:02.677Z,1006.5
2017-07-08T03:13:04.737Z,1006.5
2017-07-08T03:14:06.806Z,1006.5
2017-07-08T03:15:08.870Z,1006.5
2017-07-08T03:16:10.939Z,1006.6
2017-07-08T03:17:13.004Z,1006.6
2017-07-08T03:18:15.067Z,1006.6
2017-07-08T03:19:17.126Z,1006.5
2017-07-08T03:20:19.534Z,1006.6
2017-07-08T03:21:21.603Z,1006.6
2017-07-08T03:22:23.669Z,1006.6
2017-07-08T03:23:25.736Z,1006.6
2017-07-08T03:24:27.793Z,1006.6
2017-07-08T03:25:29.868Z,1006.6
2017-07-08T03:26:31.936Z,1006.6
2017-07-08T03:27:33.999Z,1006.6
2017-07-08T03:28:36.068Z,1006.6
2017-07-08T03:29:38.130Z,1006.6
2017-07-08T03:30:40.199Z,1006.5
2017-07-08T03:31:42.266Z,1006.5
2017-07-08T03:32:44.328Z,1006.5
2017-07-08T03:33:46.405Z,1006.5
2017-07-08T03:34:48.466Z,1006.5
2017-07-08T03:35:50.539Z,1006.5
2017-07-08T03:36:52.611Z,1006.5
2017-07-08T03:37:54.671Z,1006.6
2017-07-08T03:38:56.737Z,1006.6
2017-07-08T03:39:58.801Z,1006.6
2017-07-08T03:41:00.865Z,1006.6
2017-07-08T03:42:02.941Z,1006.6
2017-07-08T03:43:05.006Z,1006.6
2017-07-08T03:44:07.071Z,1006.6
2017-07-08T03:45:09.137Z,1006.6
2017-07-08T03:46:11.206Z,1006.6
2017-07-08T03:47:13.263Z,1006.6
2017-07-08T03:48:15.334Z,1006.7
2017-07-08T03:49:17.407Z,1006.6
2017-07-08T03:50:19.472Z,1006.6
2017-07-08T03:51:21.539Z,1006.6
2017-07-08T03:52:23.604Z,1006.5
2017-07-08T03:53:26.015Z,1006.5
2017-07-08T03:54:28.089Z,1006.5
2017-07-08T03:55:30.152Z,1006.5
2017-07-08T03:56:32.222Z,1006.4
2017-07-08T03:57:34.283Z,1006.5
2017-07-08T03:58:36.349Z,1006.5
2017-07-08T03:59:38.425Z,1006.5
2017-07-08T04:00:40.494Z,1006.5
2017-07-08T04:01:42.561Z,1006.5
2017-07-08T04:02:44.630Z,1006.5
2017-07-08T04:03:47.038Z,1006.5
2017-07-08T04:04:49.105Z,1006.7
2017-07-08T04:05:51.167Z,1006.7
2017-07-08T04:06:53.230Z,1006.7
2017-07-08T04:07:55.303Z,1006.6
2017-07-08T04:08:57.376Z,1006.7
2017-07-08T04:09:59.435Z,1006.6
2017-07-08T04:11:01.506Z,1006.6
2017-07-08T04:12:03.938Z,1006.6
2017-07-08T04:13:06.005Z,1006.6
2017-07-08T04:14:08.065Z,1006.6
2017-07-08T04:15:10.130Z,1006.7
2017-07-08T04:16:12.203Z,1006.6
2017-07-08T04:17:14.270Z,1006.6
2017-07-08T04:18:16.347Z,1006.5
2017-07-08T04:19:18.416Z,1006.5
2017-07-08T04:20:20.489Z,1006.5
2017-07-08T04:21:22.552Z,1006.4
2017-07-08T04:22:24.615Z,1006.5
2017-07-08T04:23:26.684Z,1006.5
2017-07-08T04:24:28.750Z,1006.4
2017-07-08T04:25:30.819Z,1006.5
2017-07-08T04:26:32.889Z,1006.5
2017-07-08T04:27:34.955Z,1006.5
2017-07-08T04:28:37.027Z,1006.5
2017-07-08T04:29:39.083Z,1006.5
2017-07-08T04:30:41.153Z,1006.5
2017-07-08T04:31:43.224Z,1006.6
2017-07-08T04:32:45.292Z,1006.5
2017-07-08T04:33:47.704Z,1006.5
2017-07-08T04:34:49.770Z,1006.6
2017-07-08T04:35:51.840Z,1006.6
2017-07-08T04:36:53.904Z,1006.6
2017-07-08T04:37:55.973Z,1006.6
2017-07-08T04:38:58.051Z,1006.6
2017-07-08T04:40:00.122Z,1006.6
2017-07-08T04:41:02.182Z,1006.6
2017-07-08T04:42:04.248Z,1006.6
2017-07-08T04:43:06.321Z,1006.5
2017-07-08T04:44:08.385Z,1006.5
2017-07-08T04:45:10.450Z,1006.5
2017-07-08T04:46:12.511Z,1006.5
2017-07-08T04:47:14.574Z,1006.5
2017-07-08T04:48:16.655Z,1006.5
2017-07-08T04:49:18.714Z,1006.5
2017-07-08T04:50:20.784Z,1006.5
2017-07-08T04:51:22.856Z,1006.5
2017-07-08T04:52:24.923Z,1006.5
2017-07-08T04:53:26.988Z,1006.5
2017-07-08T04:54:29.062Z,1006.5
2017-07-08T04:55:31.138Z,1006.5
2017-07-08T04:56:33.209Z,1006.5
2017-07-08T04:57:35.274Z,1006.5
2017-07-08T04:58:37.358Z,1006.5
2017-07-08T04:59:39.426Z,1006.5
2017-07-08T05:00:41.491Z,1006.5
2017-07-08T05:01:43.565Z,1006.5
2017-07-08T05:02:45.629Z,1006.5
2017-07-08T05:03:47.698Z,1006.5
2017-07-08T05:04:49.759Z,1006.5
2017-07-08T05:05:51.832Z,1006.5
2017-07-08T05:06:53.905Z,1006.5
2017-07-08T05:07:55.973Z,1006.5
2017-07-08T05:08:58.032Z,1006.5
2017-07-08T05:10:00.106Z,1006.5
2017-07-08T05:11:02.171Z,1006.5
2017-07-08T05:12:04.235Z,1006.5
2017-07-08T05:13:06.308Z,1006.5
2017-07-08T05:14:08.718Z,1006.5
2017-07-08T05:15:10.783Z,1006.5
2017-07-08T05:16:12.850Z,1006.5
2017-07-08T05:17:15.280Z,1006.5
2017-07-08T05:18:17.350Z,1006.4
2017-07-08T05:19:19.417Z,1006.4
2017-07-08T05:20:21.494Z,1006.4
2017-07-08T05:21:23.548Z,1006.5
2017-07-08T05:22:25.625Z,1006.4
2017-07-08T05:23:27.700Z,1006.4
2017-07-08T05:24:29.770Z,1006.4
2017-07-08T05:25:31.839Z,1006.4
2017-07-08T05:26:33.906Z,1006.4
2017-07-08T05:27:35.972Z,1006.4
2017-07-08T05:28:38.032Z,1006.4
2017-07-08T05:29:40.102Z,1006.4
2017-07-08T05:30:42.184Z,1006.4
2017-07-08T05:31:44.249Z,1006.3
2017-07-08T05:32:46.326Z,1006.3
2017-07-08T05:33:48.388Z,1006.4
2017-07-08T05:34:50.458Z,1006.4
2017-07-08T05:35:52.526Z,1006.4
2017-07-08T05:36:54.597Z,1006.4
2017-07-08T05:37:56.669Z,1006.4
2017-07-08T05:38:58.744Z,1006.4
2017-07-08T05:40:00.810Z,1006.4
2017-07-08T05:41:02.879Z,1006.4
2017-07-08T05:42:04.954Z,1006.4
2017-07-08T05:43:07.019Z,1006.4
2017-07-08T05:44:09.095Z,1006.4
2017-07-08T05:45:11.163Z,1006.4
2017-07-08T05:46:13.234Z,1006.4
2017-07-08T05:47:15.302Z,1006.4
2017-07-08T05:48:17.377Z,1006.4
2017-07-08T05:49:19.456Z,1006.4
2017-07-08T05:50:21.531Z,1006.5
2017-07-08T05:51:23.604Z,1006.5
2017-07-08T05:52:25.681Z,1006.5
2017-07-08T05:53:28.090Z,1006.5
2017-07-08T05:54:30.165Z,1006.6
2017-07-08T05:55:32.240Z,1006.6
2017-07-08T05:56:34.308Z,1006.6
2017-07-08T05:57:36.382Z,1006.6
2017-07-08T05:58:38.461Z,1006.6
2017-07-08T05:59:40.526Z,1006.7
2017-07-08T06:00:42.595Z,1006.7
2017-07-08T06:01:44.657Z,1006.7
2017-07-08T06:02:46.727Z,1006.8
2017-07-08T06:03:48.795Z,1006.8
2017-07-08T06:04:50.860Z,1006.8
2017-07-08T06:05:52.936Z,1006.9
2017-07-08T06:06:55.005Z,1006.9
2017-07-08T06:07:57.080Z,1006.9
2017-07-08T06:08:59.149Z,1006.9
2017-07-08T06:10:01.228Z,1006.9
2017-07-08T06:11:03.308Z,1006.9
2017-07-08T06:12:05.378Z,1007
2017-07-08T06:13:07.455Z,1007
2017-07-08T06:14:09.524Z,1007
2017-07-08T06:15:11.591Z,1007
2017-07-08T06:16:13.653Z,1007
2017-07-08T06:17:15.722Z,1007
2017-07-08T06:18:17.796Z,1007.1
2017-07-08T06:19:19.865Z,1007.1
2017-07-08T06:20:21.933Z,1007.1
2017-07-08T06:21:24.004Z,1007.1
2017-07-08T06:22:26.072Z,1007.1
2017-07-08T06:23:28.137Z,1007.1
2017-07-08T06:24:30.200Z,1007.1
2017-07-08T06:25:32.283Z,1007.1
2017-07-08T06:26:34.356Z,1007.1
2017-07-08T06:27:36.421Z,1007.1
2017-07-08T06:28:38.493Z,1007.1
2017-07-08T06:29:40.566Z,1007.1
2017-07-08T06:30:42.635Z,1007.1
2017-07-08T06:31:57.450Z,1007.1
2017-07-08T06:32:59.525Z,1007.1
2017-07-08T06:34:01.596Z,1007
2017-07-08T06:35:03.657Z,1007
2017-07-08T06:36:05.728Z,1007
2017-07-08T06:37:07.856Z,1007.1
2017-07-08T06:38:09.927Z,1007.1
2017-07-08T06:39:12.343Z,1007.1
2017-07-08T06:40:14.412Z,1007.1
2017-07-08T06:41:16.485Z,1007.1
2017-07-08T06:42:18.560Z,1007.1
2017-07-08T06:43:20.624Z,1007.1
2017-07-08T06:44:22.711Z,1007.2
2017-07-08T06:45:24.786Z,1007.1
2017-07-08T06:46:26.846Z,1007.1
2017-07-08T06:47:28.923Z,1007.1
2017-07-08T06:48:31.340Z,1007.2
2017-07-08T06:49:33.405Z,1007.1
2017-07-08T06:50:35.478Z,1007.1
2017-07-08T06:51:37.547Z,1007.1
2017-07-08T06:52:39.617Z,1007.1
2017-07-08T06:53:41.690Z,1007.1
2017-07-08T06:54:43.769Z,1007.2
2017-07-08T06:55:45.841Z,1007.1
2017-07-08T06:56:47.923Z,1007.1
2017-07-08T06:57:49.994Z,1007.1
2017-07-08T06:58:52.065Z,1007.1
2017-07-08T06:59:54.135Z,1007.1
2017-07-08T07:00:56.213Z,1007.2
2017-07-08T07:01:58.283Z,1007.2
2017-07-08T07:03:00.356Z,1007.2
2017-07-08T07:04:02.433Z,1007.2
2017-07-08T07:05:04.506Z,1007.2
2017-07-08T07:06:06.567Z,1007.2
2017-07-08T07:07:08.652Z,1007.2
2017-07-08T07:08:10.721Z,1007.2
2017-07-08T07:09:12.810Z,1007.2
2017-07-08T07:10:14.888Z,1007.2
2017-07-08T07:11:16.959Z,1007.2
2017-07-08T07:12:19.036Z,1007.2
2017-07-08T07:13:21.122Z,1007.2
2017-07-08T07:14:23.194Z,1007.2
2017-07-08T07:15:25.266Z,1007.2
2017-07-08T07:16:27.342Z,1007.2
2017-07-08T07:17:29.426Z,1007.3
2017-07-08T07:18:31.843Z,1007.3
2017-07-08T07:19:33.925Z,1007.2
2017-07-08T07:20:36.002Z,1007.3
2017-07-08T07:21:38.417Z,1007.3
2017-07-08T07:22:40.500Z,1007.3
2017-07-08T07:23:42.565Z,1007.2
2017-07-08T07:24:44.657Z,1007.3
2017-07-08T07:25:46.761Z,1007.3
2017-07-08T07:26:48.825Z,1007.2
2017-07-08T07:27:50.907Z,1007.3
2017-07-08T07:28:52.984Z,1007.3
2017-07-08T07:29:55.051Z,1007.3
2017-07-08T07:30:57.466Z,1007.3
2017-07-08T07:31:59.551Z,1007.3
2017-07-08T07:33:01.630Z,1007.3
2017-07-08T07:34:03.695Z,1007.3
2017-07-08T07:35:05.776Z,1007.3
2017-07-08T07:36:07.855Z,1007.3
2017-07-08T07:37:09.925Z,1007.3
2017-07-08T07:38:12.004Z,1007.3
2017-07-08T07:39:14.076Z,1007.3
2017-07-08T07:40:16.157Z,1007.3
2017-07-08T07:41:18.232Z,1007.3
2017-07-08T07:42:20.296Z,1007.3
2017-07-08T07:43:22.384Z,1007.4
2017-07-08T07:44:25.155Z,1007.4
2017-07-08T07:45:27.231Z,1007.3
2017-07-08T07:46:29.316Z,1007.3
2017-07-08T07:47:31.449Z,1007.4
2017-07-08T07:48:33.487Z,1007.4
2017-07-08T07:49:35.577Z,1007.4
2017-07-08T07:50:37.662Z,1007.4
2017-07-08T07:51:39.745Z,1007.4
2017-07-08T07:52:41.841Z,1007.4
2017-07-08T07:53:43.908Z,1007.4
2017-07-08T07:54:45.984Z,1007.4
2017-07-08T07:55:48.060Z,1007.4
2017-07-08T07:56:50.137Z,1007.4
2017-07-08T07:57:52.233Z,1007.4
2017-07-08T07:58:54.309Z,1007.5
2017-07-08T07:59:56.389Z,1007.4
2017-07-08T08:00:58.476Z,1007.4
2017-07-08T08:02:00.545Z,1007.4
2017-07-08T08:03:02.632Z,1007.4
2017-07-08T08:04:04.712Z,1007.4
2017-07-08T08:05:06.794Z,1007.5
2017-07-08T08:06:08.876Z,1007.4
2017-07-08T08:07:10.934Z,1007.4
2017-07-08T08:08:13.032Z,1007.4
2017-07-08T08:09:15.115Z,1007.5
2017-07-08T08:10:17.535Z,1007.5
2017-07-08T08:11:19.605Z,1007.5
2017-07-08T08:12:21.689Z,1007.5
2017-07-08T08:13:23.771Z,1007.5
2017-07-08T08:14:25.834Z,1007.5
2017-07-08T08:15:27.915Z,1007.5
2017-07-08T08:16:29.995Z,1007.5
2017-07-08T08:17:32.063Z,1007.4
2017-07-08T08:18:34.137Z,1007.5
2017-07-08T08:19:36.211Z,1007.5
2017-07-08T08:20:38.282Z,1007.4
2017-07-08T08:21:40.350Z,1007.4
2017-07-08T08:22:42.426Z,1007.4
2017-07-08T08:23:44.511Z,1007.4
2017-07-08T08:24:46.586Z,1007.4
2017-07-08T08:25:48.664Z,1007.4
2017-07-08T08:26:50.744Z,1007.4
2017-07-08T08:27:52.819Z,1007.3
2017-07-08T08:28:54.900Z,1007.4
2017-07-08T08:29:56.981Z,1007.3
2017-07-08T08:30:59.057Z,1007.4
2017-07-08T08:32:01.472Z,1007.4
2017-07-08T08:33:03.556Z,1007.4
2017-07-08T08:34:05.632Z,1007.4
2017-07-08T08:35:07.709Z,1007.4
2017-07-08T08:36:09.787Z,1007.4
2017-07-08T08:37:11.879Z,1007.4
2017-07-08T08:38:13.952Z,1007.4
2017-07-08T08:39:16.038Z,1007.4
2017-07-08T08:40:18.121Z,1007.4
2017-07-08T08:41:20.206Z,1007.5
2017-07-08T08:42:22.276Z,1007.5
2017-07-08T08:43:24.364Z,1007.5
2017-07-08T08:44:26.508Z,1007.5
2017-07-08T08:45:28.530Z,1007.5
2017-07-08T08:46:30.597Z,1007.5
2017-07-08T08:47:32.680Z,1007.5
2017-07-08T08:48:34.745Z,1007.5
2017-07-08T08:49:36.827Z,1007.5
2017-07-08T08:50:38.909Z,1007.5
2017-07-08T08:51:40.990Z,1007.5
2017-07-08T08:52:43.070Z,1007.5
2017-07-08T08:53:45.157Z,1007.5
2017-07-08T08:54:47.213Z,1007.5
2017-07-08T08:55:49.303Z,1007.5
2017-07-08T08:56:51.379Z,1007.5
2017-07-08T08:57:53.456Z,1007.5
2017-07-08T08:58:55.540Z,1007.5
2017-07-08T08:59:57.621Z,1007.5
2017-07-08T09:00:59.695Z,1007.6
2017-07-08T09:02:01.767Z,1007.5
2017-07-08T09:03:03.845Z,1007.5
2017-07-08T09:04:06.277Z,1007.6
2017-07-08T09:05:08.335Z,1007.6
2017-07-08T09:06:10.419Z,1007.5
2017-07-08T09:07:13.186Z,1007.6
2017-07-08T09:08:15.262Z,1007.6
2017-07-08T09:09:17.347Z,1007.6
2017-07-08T09:10:19.419Z,1007.5
2017-07-08T09:11:21.512Z,1007.6
2017-07-08T09:12:23.582Z,1007.6
2017-07-08T09:13:25.655Z,1007.6
2017-07-08T09:14:27.742Z,1007.7
2017-07-08T09:15:29.819Z,1007.7
2017-07-08T09:16:31.899Z,1007.6
2017-07-08T09:17:33.984Z,1007.6
2017-07-08T09:18:36.072Z,1007.7
2017-07-08T09:19:38.207Z,1007.7
2017-07-08T09:20:40.255Z,1007.6
2017-07-08T09:21:42.395Z,1007.7
2017-07-08T09:22:44.471Z,1007.6
2017-07-08T09:23:46.582Z,1007.6
2017-07-08T09:24:48.668Z,1007.6
2017-07-08T09:25:50.753Z,1007.6
2017-07-08T09:26:52.842Z,1007.6
2017-07-08T09:27:54.914Z,1007.6
2017-07-08T09:28:56.991Z,1007.6
2017-07-08T09:29:59.082Z,1007.6
2017-07-08T09:31:01.154Z,1007.6
2017-07-08T09:32:03.249Z,1007.7
2017-07-08T09:33:05.337Z,1007.6
2017-07-08T09:34:07.424Z,1007.7
2017-07-08T09:35:09.559Z,1007.7
2017-07-08T09:36:11.662Z,1007.7
2017-07-08T09:37:13.758Z,1007.6
2017-07-08T09:38:15.834Z,1007.6
2017-07-08T09:39:17.942Z,1007.6
2017-07-08T09:40:20.049Z,1007.6
2017-07-08T09:41:22.190Z,1007.5
2017-07-08T09:42:24.307Z,1007.5
2017-07-08T09:43:26.392Z,1007.5
2017-07-08T09:44:28.486Z,1007.6
2017-07-08T09:45:30.568Z,1007.5
2017-07-08T09:46:32.672Z,1007.6
2017-07-08T09:47:34.755Z,1007.6
2017-07-08T09:48:36.839Z,1007.6
2017-07-08T09:49:38.925Z,1007.6
2017-07-08T09:50:41.016Z,1007.6
2017-07-08T09:51:43.100Z,1007.6
2017-07-08T09:52:45.184Z,1007.6
2017-07-08T09:53:47.272Z,1007.6
2017-07-08T09:54:49.360Z,1007.6
2017-07-08T09:55:51.439Z,1007.6
2017-07-08T09:56:53.539Z,1007.7
2017-07-08T09:57:55.627Z,1007.6
2017-07-08T09:58:57.720Z,1007.6
2017-07-08T10:00:00.141Z,1007.6
2017-07-08T10:01:02.230Z,1007.7
2017-07-08T10:02:04.673Z,1007.7
2017-07-08T10:03:06.753Z,1007.8
2017-07-08T10:04:08.849Z,1007.6
2017-07-08T10:05:10.933Z,1007.7
2017-07-08T10:06:13.014Z,1007.7
2017-07-08T10:07:15.102Z,1007.7
2017-07-08T10:08:17.187Z,1007.7
2017-07-08T10:09:19.291Z,1007.7
2017-07-08T10:10:21.386Z,1007.8
2017-07-08T10:11:23.465Z,1007.7
2017-07-08T10:12:25.563Z,1007.7
2017-07-08T10:13:27.660Z,1007.7
2017-07-08T10:14:29.750Z,1007.7
2017-07-08T10:15:31.828Z,1007.7
2017-07-08T10:16:33.912Z,1007.7
2017-07-08T10:17:36.003Z,1007.7
2017-07-08T10:18:38.099Z,1007.7
2017-07-08T10:19:40.177Z,1007.7
2017-07-08T10:20:42.259Z,1007.7
2017-07-08T10:21:44.353Z,1007.8
2017-07-08T10:22:46.436Z,1007.7
2017-07-08T10:23:48.515Z,1007.8
2017-07-08T10:24:50.604Z,1007.8
2017-07-08T10:25:52.684Z,1007.8
2017-07-08T10:26:54.788Z,1007.8
2017-07-08T10:27:56.888Z,1007.8
2017-07-08T10:28:58.958Z,1007.8
2017-07-08T10:30:01.054Z,1007.8
2017-07-08T10:31:03.136Z,1007.8
2017-07-08T10:32:05.242Z,1007.8
2017-07-08T10:33:07.329Z,1007.8
2017-07-08T10:34:09.421Z,1007.8
2017-07-08T10:35:11.510Z,1007.8
2017-07-08T10:36:13.587Z,1007.7
2017-07-08T10:37:16.014Z,1007.7
2017-07-08T10:38:18.102Z,1007.7
2017-07-08T10:39:20.193Z,1007.8
2017-07-08T10:40:22.278Z,1007.7
2017-07-08T10:41:24.377Z,1007.8
2017-07-08T10:42:26.465Z,1007.8
2017-07-08T10:43:28.555Z,1007.7
2017-07-08T10:44:30.661Z,1007.8
2017-07-08T10:45:32.762Z,1007.8
2017-07-08T10:46:34.850Z,1007.9
2017-07-08T10:47:36.949Z,1007.9
2017-07-08T10:48:39.028Z,1007.9
2017-07-08T10:49:41.129Z,1007.9
2017-07-08T10:50:43.209Z,1007.8
2017-07-08T10:51:45.303Z,1007.9
2017-07-08T10:52:47.392Z,1007.9
2017-07-08T10:53:49.485Z,1008
2017-07-08T10:54:51.578Z,1008
2017-07-08T10:55:53.678Z,1008
2017-07-08T10:56:55.760Z,1008
2017-07-08T10:57:57.862Z,1008.1
2017-07-08T10:58:59.944Z,1008.1
2017-07-08T11:00:02.049Z,1008
2017-07-08T11:01:04.130Z,1008.1
2017-07-08T11:02:06.229Z,1008.1
2017-07-08T11:03:08.308Z,1008
2017-07-08T11:04:10.385Z,1008.1
2017-07-08T11:05:12.827Z,1008.2
2017-07-08T11:06:14.908Z,1008.1
2017-07-08T11:07:16.995Z,1008.1
2017-07-08T11:08:19.078Z,1008.1
2017-07-08T11:09:21.155Z,1008.1
2017-07-08T11:10:23.243Z,1008.1
2017-07-08T11:11:25.330Z,1008.1
2017-07-08T11:12:27.413Z,1008.1
2017-07-08T11:13:29.504Z,1008.2
2017-07-08T11:14:31.589Z,1008.2
2017-07-08T11:15:33.681Z,1008.2
2017-07-08T11:16:35.757Z,1008.2
2017-07-08T11:17:37.849Z,1008.2
2017-07-08T11:18:39.936Z,1008.2
2017-07-08T11:19:42.030Z,1008.1
2017-07-08T11:20:44.116Z,1008.2
2017-07-08T11:21:46.204Z,1008.2
2017-07-08T11:22:48.303Z,1008.2
2017-07-08T11:23:50.373Z,1008.1
2017-07-08T11:24:52.461Z,1008.2
2017-07-08T11:25:54.558Z,1008.2
2017-07-08T11:26:56.991Z,1008.2
2017-07-08T11:27:59.071Z,1008.1
2017-07-08T11:29:01.165Z,1008.1
2017-07-08T11:30:03.258Z,1008.1
2017-07-08T11:31:05.332Z,1008.1
2017-07-08T11:32:07.406Z,1008
2017-07-08T11:33:09.501Z,1008
2017-07-08T11:34:11.590Z,1008
2017-07-08T11:35:13.668Z,1007.9
2017-07-08T11:36:15.776Z,1007.9
2017-07-08T11:37:18.217Z,1007.9
2017-07-08T11:38:20.318Z,1007.8
2017-07-08T11:39:22.406Z,1007.8
2017-07-08T11:40:24.493Z,1007.8
2017-07-08T11:41:26.604Z,1007.8
2017-07-08T11:42:28.687Z,1007.8
2017-07-08T11:43:30.781Z,1007.8
2017-07-08T11:44:32.877Z,1007.7
2017-07-08T11:45:34.960Z,1007.8
2017-07-08T11:46:37.061Z,1007.8
2017-07-08T11:47:39.166Z,1007.7
2017-07-08T11:48:41.260Z,1007.7
2017-07-08T11:49:43.349Z,1007.7
2017-07-08T11:50:45.433Z,1007.7
2017-07-08T11:51:47.525Z,1007.7
2017-07-08T11:52:49.611Z,1007.8
2017-07-08T11:53:51.696Z,1007.8
2017-07-08T11:54:53.788Z,1007.8
2017-07-08T11:55:55.880Z,1007.7
2017-07-08T11:56:57.972Z,1007.8
2017-07-08T11:58:00.073Z,1007.8
2017-07-08T11:59:02.187Z,1007.8
2017-07-08T12:00:05.157Z,1007.9
2017-07-08T12:01:07.256Z,1007.8
2017-07-08T12:02:09.336Z,1007.8
2017-07-08T12:03:11.426Z,1007.8
2017-07-08T12:04:13.506Z,1007.8
2017-07-08T12:05:15.598Z,1007.8
2017-07-08T12:06:17.694Z,1007.8
2017-07-08T12:07:19.800Z,1007.7
2017-07-08T12:08:21.917Z,1007.8
2017-07-08T12:09:24.055Z,1007.7
2017-07-08T12:10:26.377Z,1007.7
2017-07-08T12:11:28.470Z,1007.7
2017-07-08T12:12:30.555Z,1007.7
2017-07-08T12:13:32.648Z,1007.7
2017-07-08T12:14:34.733Z,1007.7
2017-07-08T12:15:37.243Z,1007.7
2017-07-08T12:16:39.336Z,1007.7
2017-07-08T12:17:41.432Z,1007.7
2017-07-08T12:18:43.519Z,1007.7
2017-07-08T12:19:45.609Z,1007.7
2017-07-08T12:20:47.688Z,1007.7
2017-07-08T12:21:49.767Z,1007.7
2017-07-08T12:22:51.894Z,1007.8
2017-07-08T12:23:53.934Z,1007.8
2017-07-08T12:24:56.016Z,1007.7
2017-07-08T12:25:58.102Z,1007.8
2017-07-08T12:27:00.192Z,1007.7
2017-07-08T12:28:02.287Z,1007.7
2017-07-08T12:29:04.367Z,1007.7
2017-07-08T12:30:06.466Z,1007.7
2017-07-08T12:31:08.563Z,1007.7
2017-07-08T12:32:10.638Z,1007.7
2017-07-08T12:33:12.729Z,1007.7
2017-07-08T12:34:14.815Z,1007.7
2017-07-08T12:35:17.245Z,1007.7
2017-07-08T12:36:19.335Z,1007.7
2017-07-08T12:37:21.423Z,1007.6
2017-07-08T12:38:23.506Z,1007.6
2017-07-08T12:39:25.597Z,1007.6
2017-07-08T12:40:27.685Z,1007.5
2017-07-08T12:41:29.781Z,1007.6
2017-07-08T12:42:31.859Z,1007.5
2017-07-08T12:43:33.950Z,1007.5
2017-07-08T12:44:36.028Z,1007.5
2017-07-08T12:45:38.117Z,1007.6
2017-07-08T12:46:40.199Z,1007.5
2017-07-08T12:47:42.282Z,1007.5
2017-07-08T12:48:44.386Z,1007.6
2017-07-08T12:49:46.477Z,1007.5
2017-07-08T12:50:48.561Z,1007.5
2017-07-08T12:51:50.652Z,1007.5
2017-07-08T12:52:52.737Z,1007.5
2017-07-08T12:53:54.840Z,1007.5
2017-07-08T12:54:56.926Z,1007.4
2017-07-08T12:55:59.002Z,1007.5